Time;durP1;ratioP1;P1;durP2;ratioP2;P2;SDS_P1;SDS_P2;PMS_P1;PMS_P2;Temp;Humidity;BMP_temperature;BMP_pressure;BME280_temperature;BME280_humidity;BME280_pressure;Samples;Min_cycle;Max_cycle;Signal;HPM_P1;HPM_P2
2021/01/29 00:00:36;;;;;;;15.63;3.72;;;10.90;1.00;;;;;;5034456;28;20067;-84
2021/01/29 00:03:06;;;;;;;4.57;3.38;;;10.80;1.00;;;;;;5033276;28;20049;-84
2021/01/29 00:05:42;;;;;;;14.02;3.97;;;10.70;1.30;;;;;;5033279;28;20035;-84
2021/01/29 00:08:08;;;;;;;5.47;3.80;;;10.60;87.50;;;;;;5010182;28;700221;-84
2021/01/29 00:10:35;;;;;;;3.75;3.40;;;10.60;99.90;;;;;;5034671;28;20553;-84
2021/01/29 00:13:02;;;;;;;5.68;3.67;;;10.70;99.90;;;;;;5033925;28;20395;-84
2021/01/29 00:15:29;;;;;;;4.93;3.47;;;10.60;99.90;;;;;;5035275;28;20079;-84
2021/01/29 00:17:55;;;;;;;5.72;3.30;;;10.70;99.90;;;;;;5034535;28;20014;-84
2021/01/29 00:20:23;;;;;;;4.20;3.50;;;10.70;99.90;;;;;;5034646;28;20029;-84
2021/01/29 00:22:49;;;;;;;6.18;3.65;;;10.70;99.90;;;;;;5035074;28;20032;-84
2021/01/29 00:25:22;;;;;;;4.72;3.47;;;10.80;99.90;;;;;;5034969;28;20033;-84
2021/01/29 00:27:48;;;;;;;4.78;3.25;;;10.90;1.00;;;;;;5034705;28;20031;-84
2021/01/29 00:30:16;;;;;;;5.78;3.50;;;10.90;41.10;;;;;;5034673;28;20040;-84
2021/01/29 00:32:42;;;;;;;5.90;3.80;;;10.90;99.90;;;;;;5033967;28;20029;-84
2021/01/29 00:35:09;;;;;;;7.50;4.30;;;10.80;99.90;;;;;;5034627;28;20018;-84
2021/01/29 00:37:35;;;;;;;5.32;3.92;;;10.80;99.90;;;;;;5034059;28;20014;-84
2021/01/29 00:40:01;;;;;;;5.55;4.35;;;10.90;1.00;;;;;;5034664;28;20025;-84
2021/01/29 00:42:26;;;;;;;4.70;4.10;;;10.90;1.00;;;;;;5034762;28;20387;-84
2021/01/29 00:44:52;;;;;;;4.93;4.13;;;10.90;99.90;;;;;;5034444;28;20025;-84
2021/01/29 00:47:17;;;;;;;7.22;4.50;;;10.90;99.90;;;;;;5034411;28;20045;-84
2021/01/29 00:49:43;;;;;;;5.68;3.60;;;11.00;99.90;;;;;;5033903;28;20135;-84
2021/01/29 00:52:09;;;;;;;5.05;4.05;;;10.90;99.90;;;;;;5034712;28;20029;-84
2021/01/29 00:54:34;;;;;;;6.60;4.35;;;11.00;99.90;;;;;;5034359;28;20053;-84
2021/01/29 00:57:00;;;;;;;5.85;4.10;;;11.00;1.00;;;;;;5034406;28;20100;-84
2021/01/29 00:59:25;;;;;;;5.90;3.40;;;11.10;1.00;;;;;;5034139;28;20192;-85
2021/01/29 01:01:51;;;;;;;4.65;3.70;;;11.10;99.90;;;;;;5034472;28;20022;-84
2021/01/29 01:04:17;;;;;;;4.78;3.88;;;11.20;1.00;;;;;;5034242;28;20034;-84
2021/01/29 01:06:43;;;;;;;4.65;3.75;;;11.10;99.90;;;;;;5033961;28;20120;-84
2021/01/29 01:09:09;;;;;;;4.32;3.70;;;11.20;99.90;;;;;;5034070;28;20560;-84
2021/01/29 01:11:35;;;;;;;5.30;3.70;;;11.10;99.90;;;;;;5033847;28;20025;-84
2021/01/29 01:14:00;;;;;;;4.30;3.60;;;11.10;99.90;;;;;;5034325;28;20026;-84
2021/01/29 01:16:27;;;;;;;4.18;3.63;;;11.10;99.90;;;;;;5033841;28;20391;-84
2021/01/29 01:18:54;;;;;;;4.82;3.30;;;11.20;99.90;;;;;;5033892;28;20021;-84
2021/01/29 01:21:19;;;;;;;3.92;3.33;;;11.30;99.90;;;;;;5033998;28;20021;-84
2021/01/29 01:23:45;;;;;;;4.53;3.42;;;11.30;99.90;;;;;;5034135;28;20062;-84
2021/01/29 01:26:10;;;;;;;4.10;3.45;;;11.30;99.90;;;;;;5034111;28;20479;-84
2021/01/29 01:28:36;;;;;;;4.72;3.90;;;11.30;99.90;;;;;;5034027;28;20060;-84
2021/01/29 01:31:02;;;;;;;4.13;3.38;;;11.30;99.90;;;;;;5032903;28;20029;-84
2021/01/29 01:33:27;;;;;;;4.03;3.60;;;11.30;15.80;;;;;;5032993;28;20479;-84
2021/01/29 01:35:53;;;;;;;4.32;3.90;;;11.20;3.50;;;;;;5033346;28;20064;-84
2021/01/29 01:38:18;;;;;;;3.45;3.15;;;11.30;1.00;;;;;;5033510;28;20017;-84
2021/01/29 01:40:46;;;;;;;5.55;3.50;;;11.30;1.00;;;;;;5033850;28;20025;-84
2021/01/29 01:43:11;;;;;;;4.60;3.30;;;11.40;1.00;;;;;;5033652;28;20017;-83
2021/01/29 01:46:01;;;;;;;4.05;3.53;;;11.50;1.00;;;;;;5033354;28;20037;-84
2021/01/29 01:48:38;;;;;;;3.90;2.97;;;11.50;1.00;;;;;;5033033;28;20487;-84
2021/01/29 01:51:05;;;;;;;4.93;3.10;;;11.50;1.00;;;;;;5033194;28;20036;-84
2021/01/29 01:53:42;;;;;;;3.65;3.13;;;11.60;1.00;;;;;;5032728;28;20072;-84
2021/01/29 01:56:18;;;;;;;4.22;3.13;;;11.70;1.00;;;;;;5032857;28;20049;-84
2021/01/29 01:58:50;;;;;;;4.22;2.55;;;11.60;1.00;;;;;;5033193;28;20033;-84
2021/01/29 02:01:16;;;;;;;3.85;2.88;;;11.70;1.00;;;;;;5020941;28;20017;-84
2021/01/29 02:03:42;;;;;;;4.80;2.67;;;11.80;1.00;;;;;;5032892;28;20356;-84
2021/01/29 02:06:09;;;;;;;2.92;2.50;;;11.80;1.00;;;;;;5032792;28;20022;-84
2021/01/29 02:08:37;;;;;;;2.35;2.08;;;11.90;1.00;;;;;;5032745;28;20563;-84
2021/01/29 02:11:03;;;;;;;3.08;2.20;;;11.90;1.00;;;;;;5032525;28;20029;-84
2021/01/29 02:13:29;;;;;;;2.47;2.20;;;12.00;1.00;;;;;;5033444;28;20018;-84
2021/01/29 02:16:00;;;;;;;2.75;2.00;;;12.00;1.00;;;;;;5032419;28;20021;-85
2021/01/29 02:18:43;;;;;;;2.47;1.98;;;12.00;1.00;;;;;;5032624;28;20104;-84
2021/01/29 02:21:30;;;;;;;3.05;2.40;;;12.10;1.00;;;;;;5032417;28;20022;-85
2021/01/29 02:24:17;;;;;;;3.08;2.05;;;12.10;1.00;;;;;;5032253;28;20044;-84
2021/01/29 02:27:01;;;;;;;3.10;1.80;;;12.10;1.00;;;;;;5028726;28;20048;-84
2021/01/29 02:30:04;;;;;;;2.72;2.30;;;12.20;1.00;;;;;;5033173;28;20022;-84
2021/01/29 02:32:51;;;;;;;2.30;1.95;;;12.10;1.00;;;;;;5017325;28;20033;-84
2021/01/29 02:35:48;;;;;;;1.90;1.80;;;12.20;1.00;;;;;;5032545;28;20017;-84
2021/01/29 02:38:45;;;;;;;2.00;1.80;;;12.20;1.00;;;;;;5032276;28;20100;-84
2021/01/29 02:41:29;;;;;;;5.35;1.67;;;12.20;1.00;;;;;;5032699;28;20057;-84
2021/01/29 02:44:27;;;;;;;4.90;2.53;;;12.30;1.00;;;;;;5031994;28;20014;-84
2021/01/29 02:46:57;;;;;;;2.38;1.80;;;12.30;1.00;;;;;;5032321;28;20032;-84
2021/01/29 02:49:30;;;;;;;2.35;2.00;;;12.30;1.00;;;;;;5031908;28;20163;-84
2021/01/29 02:52:10;;;;;;;2.10;1.90;;;12.30;1.00;;;;;;5032203;28;20021;-84
2021/01/29 02:54:57;;;;;;;1.85;1.70;;;12.30;1.00;;;;;;5032072;28;20029;-84
2021/01/29 02:57:46;;;;;;;1.70;1.60;;;12.30;1.00;;;;;;5032390;28;20383;-84
2021/01/29 03:00:30;;;;;;;2.28;1.70;;;12.30;1.00;;;;;;5031422;28;20510;-84
2021/01/29 03:03:08;;;;;;;2.00;1.70;;;12.40;1.00;;;;;;5031532;28;20017;-84
2021/01/29 03:05:59;;;;;;;2.75;1.90;;;12.40;1.00;;;;;;5032017;28;20029;-84
2021/01/29 03:08:33;;;;;;;2.13;1.70;;;12.40;1.00;;;;;;5031226;28;20054;-84
2021/01/29 03:11:07;;;;;;;2.00;1.70;;;12.40;1.00;;;;;;5032570;28;20032;-84
2021/01/29 03:14:02;;;;;;;1.92;1.75;;;12.30;1.00;;;;;;5020702;28;20075;-84
2021/01/29 03:16:52;;;;;;;1.50;1.30;;;12.30;1.00;;;;;;5032149;28;20118;-84
2021/01/29 03:19:31;;;;;;;1.50;1.40;;;12.30;1.00;;;;;;5031472;28;20025;-84
2021/01/29 03:22:06;;;;;;;1.65;1.40;;;12.30;1.00;;;;;;5031921;28;20376;-84
2021/01/29 03:24:52;;;;;;;1.45;1.30;;;12.40;1.00;;;;;;5032221;28;20017;-84
2021/01/29 03:27:26;;;;;;;1.60;1.40;;;12.40;1.00;;;;;;5032133;28;20026;-84
2021/01/29 03:30:01;;;;;;;1.65;1.40;;;12.50;1.00;;;;;;5031603;28;20021;-84
2021/01/29 03:32:28;;;;;;;1.45;1.10;;;12.50;1.00;;;;;;5031425;28;20464;-84
2021/01/29 03:35:28;;;;;;;2.35;1.20;;;12.50;1.00;;;;;;5031740;28;20017;-84
2021/01/29 03:38:08;;;;;;;1.73;1.15;;;12.50;1.00;;;;;;5031587;28;20447;-84
2021/01/29 03:40:37;;;;;;;1.50;1.17;;;12.50;1.00;;;;;;5031478;28;20109;-84
2021/01/29 03:43:21;;;;;;;2.20;1.33;;;12.60;1.00;;;;;;5016781;28;20033;-84
2021/01/29 03:45:59;;;;;;;1.48;1.20;;;12.50;1.00;;;;;;5023273;28;20049;-84
2021/01/29 03:48:30;;;;;;;1.27;1.05;;;12.50;1.00;;;;;;5031399;28;20017;-84
2021/01/29 03:51:14;;;;;;;1.27;1.02;;;12.60;1.00;;;;;;5032028;28;20029;-84
2021/01/29 03:53:45;;;;;;;2.85;1.30;;;12.70;1.00;;;;;;5025573;28;20052;-84
2021/01/29 03:56:59;;;;;;;1.55;1.17;;;12.60;1.00;;;;;;5031917;28;20100;-84
2021/01/29 03:59:29;;;;;;;1.92;1.52;;;12.70;1.00;;;;;;4944084;29;20042;-84
2021/01/29 04:02:20;;;;;;;1.42;1.15;;;12.60;1.00;;;;;;4951280;29;20110;-84
2021/01/29 04:05:07;;;;;;;1.90;1.27;;;12.70;1.00;;;;;;4933060;29;20394;-84
2021/01/29 04:07:50;;;;;;;1.80;1.13;;;12.60;1.00;;;;;;4918452;29;20438;-84
2021/01/29 04:10:20;;;;;;;1.73;1.30;;;12.60;1.00;;;;;;4932729;29;20095;-84
2021/01/29 04:12:58;;;;;;;1.70;1.15;;;12.70;1.00;;;;;;4941647;29;20039;-84
2021/01/29 04:15:39;;;;;;;2.40;1.50;;;12.70;1.00;;;;;;4944791;28;20043;-84
2021/01/29 04:18:52;;;;;;;2.10;1.10;;;12.60;1.00;;;;;;4936222;29;20020;-84
2021/01/29 04:21:33;;;;;;;1.45;1.15;;;12.70;1.00;;;;;;4916340;29;20490;-84
2021/01/29 04:24:02;;;;;;;1.92;1.00;;;12.70;1.00;;;;;;4913584;29;20120;-84
2021/01/29 04:26:32;;;;;;;2.05;1.27;;;12.70;1.00;;;;;;4916663;29;20028;-84
2021/01/29 04:29:04;;;;;;;1.35;1.17;;;12.70;1.00;;;;;;4916628;29;20036;-84
2021/01/29 04:31:32;;;;;;;1.38;1.23;;;12.70;1.00;;;;;;4916553;29;20036;-84
2021/01/29 04:34:04;;;;;;;2.28;1.20;;;12.60;1.00;;;;;;4908449;29;20390;-84
2021/01/29 04:36:33;;;;;;;1.20;1.00;;;12.70;1.00;;;;;;4951692;28;20039;-85
2021/01/29 04:39:11;;;;;;;1.40;1.05;;;12.60;1.00;;;;;;4974016;28;20034;-84
2021/01/29 04:41:45;;;;;;;1.20;0.93;;;12.50;1.00;;;;;;4973832;28;20038;-84
2021/01/29 04:44:29;;;;;;;1.58;1.10;;;12.60;1.00;;;;;;4973268;28;20034;-84
2021/01/29 04:47:21;;;;;;;1.20;1.08;;;12.60;1.00;;;;;;4973919;28;20053;-84
2021/01/29 04:50:00;;;;;;;1.17;1.02;;;12.70;1.00;;;;;;4973119;28;20500;-84
2021/01/29 04:52:53;;;;;;;1.38;1.10;;;12.70;1.00;;;;;;4973258;28;20129;-84
2021/01/29 04:55:44;;;;;;;1.55;1.10;;;12.80;1.00;;;;;;4973346;28;20027;-84
2021/01/29 04:58:16;;;;;;;1.92;1.05;;;12.80;1.00;;;;;;5014981;28;20029;-85
2021/01/29 05:01:34;;;;;;;1.25;1.02;;;12.70;1.00;;;;;;5026784;28;20112;-84
2021/01/29 05:04:41;;;;;;;1.40;0.82;;;12.80;1.00;;;;;;5033853;28;20475;-84
2021/01/29 05:07:25;;;;;;;0.88;0.82;;;12.70;1.00;;;;;;4971356;28;20566;-84
2021/01/29 05:10:38;;;;;;;1.15;1.05;;;12.50;1.00;;;;;;4954072;28;20031;-84
2021/01/29 05:13:12;;;;;;;2.13;0.98;;;12.60;1.00;;;;;;4957287;28;20051;-84
2021/01/29 05:16:05;;;;;;;1.40;0.90;;;12.50;1.00;;;;;;4973371;28;20054;-84
2021/01/29 05:18:49;;;;;;;1.55;1.10;;;12.50;1.00;;;;;;4969301;28;20121;-84
2021/01/29 05:21:38;;;;;;;1.98;0.90;;;12.60;1.00;;;;;;4972711;28;20397;-84
2021/01/29 05:24:36;;;;;;;1.35;0.98;;;12.60;1.00;;;;;;4973137;28;20042;-84
2021/01/29 05:27:39;;;;;;;0.90;0.90;;;12.60;1.00;;;;;;4901710;29;20071;-84
2021/01/29 05:30:26;;;;;;;1.30;1.20;;;12.60;1.00;;;;;;4897017;29;20052;-84
2021/01/29 05:33:00;;;;;;;2.13;1.20;;;12.50;1.00;;;;;;4895549;29;20369;-84
2021/01/29 05:35:50;;;;;;;1.02;0.85;;;12.50;1.00;;;;;;4896626;29;20484;-84
2021/01/29 05:38:37;;;;;;;2.00;1.33;;;12.60;1.00;;;;;;4889366;29;20024;-84
2021/01/29 05:41:24;;;;;;;3.35;1.63;;;12.60;1.00;;;;;;4896802;29;20112;-84
2021/01/29 05:44:17;;;;;;;2.13;1.40;;;12.40;1.00;;;;;;4934586;29;20542;-84
2021/01/29 05:47:07;;;;;;;1.23;1.13;;;12.30;1.00;;;;;;4947828;29;20032;-84
2021/01/29 05:49:38;;;;;;;1.52;1.10;;;12.20;1.00;;;;;;4949854;28;20046;-84
2021/01/29 05:52:25;;;;;;;1.77;1.10;;;12.20;1.00;;;;;;4972915;28;20083;-84
2021/01/29 05:55:19;;;;;;;1.60;1.30;;;12.20;1.00;;;;;;4943241;28;20038;-84
2021/01/29 05:58:06;;;;;;;1.50;1.20;;;12.20;1.00;;;;;;4934237;29;20047;-84
2021/01/29 06:00:43;;;;;;;2.30;1.38;;;12.30;1.00;;;;;;4943684;29;20412;-84
2021/01/29 06:03:44;;;;;;;1.30;1.20;;;12.10;1.00;;;;;;5009510;28;20523;-84
2021/01/29 06:06:44;;;;;;;10.80;7.25;;;12.20;1.00;;;;;;5032704;28;20073;-84
2021/01/29 06:09:35;;;;;;;2.65;1.80;;;12.10;1.00;;;;;;5031783;28;20110;-84
2021/01/29 06:12:32;;;;;;;5.03;3.75;;;12.10;1.00;;;;;;4987313;28;20041;-84
2021/01/29 06:15:10;;;;;;;1.48;1.30;;;12.10;1.00;;;;;;4976407;28;20030;-84
2021/01/29 06:18:04;;;;;;;3.22;1.58;;;12.10;1.00;;;;;;4986864;28;20031;-84
2021/01/29 06:21:11;;;;;;;1.58;1.48;;;12.20;1.00;;;;;;4972455;28;20496;-84
2021/01/29 06:24:05;;;;;;;4.43;1.50;;;12.30;1.00;;;;;;4946171;29;20039;-84
2021/01/29 06:27:07;;;;;;;1.45;1.33;;;12.20;1.00;;;;;;4952173;29;20024;-84
2021/01/29 06:29:54;;;;;;;1.70;1.60;;;12.30;1.00;;;;;;4949328;29;20497;-84
2021/01/29 06:32:34;;;;;;;1.95;1.30;;;12.30;1.00;;;;;;4952674;29;20039;-84
2021/01/29 06:35:41;;;;;;;3.53;1.77;;;12.30;1.00;;;;;;4949478;29;20039;-84
2021/01/29 06:38:18;;;;;;;1.80;1.50;;;12.30;1.00;;;;;;4941719;28;20066;-84
2021/01/29 06:41:29;;;;;;;4.40;1.52;;;12.40;1.00;;;;;;4951556;29;20171;-84
2021/01/29 06:44:22;;;;;;;2.25;1.50;;;12.40;1.00;;;;;;4951718;29;20091;-84
2021/01/29 06:47:19;;;;;;;1.77;1.50;;;12.40;1.00;;;;;;4952122;29;20035;-84
2021/01/29 06:50:14;;;;;;;2.55;1.40;;;12.30;1.00;;;;;;4981803;28;20421;-84
2021/01/29 06:53:09;;;;;;;1.45;1.35;;;12.20;1.00;;;;;;4989094;28;20029;-84
2021/01/29 06:56:08;;;;;;;1.65;1.50;;;12.10;1.00;;;;;;4969279;28;20035;-84
2021/01/29 06:59:28;;;;;;;2.20;1.90;;;12.20;1.00;;;;;;4988230;28;20030;-86
2021/01/29 07:02:25;;;;;;;2.17;1.40;;;12.30;1.00;;;;;;4950713;29;20054;-85
2021/01/29 07:05:27;;;;;;;2.95;1.23;;;12.30;1.00;;;;;;4932516;29;20043;-85
2021/01/29 07:07:59;;;;;;;2.17;1.27;;;12.20;1.00;;;;;;4915606;29;20106;-85
2021/01/29 07:10:27;;;;;;;1.33;1.20;;;12.20;1.00;;;;;;4931350;29;20032;-85
2021/01/29 07:13:15;;;;;;;1.75;1.35;;;12.10;1.00;;;;;;4933074;29;20036;-85
2021/01/29 07:15:54;;;;;;;1.30;1.20;;;12.20;1.00;;;;;;4933492;29;20133;-85
2021/01/29 07:18:32;;;;;;;3.22;2.00;;;12.30;1.00;;;;;;4917427;29;20490;-85
2021/01/29 07:21:06;;;;;;;2.70;2.42;;;12.40;1.00;;;;;;4933050;29;20060;-85
2021/01/29 07:23:51;;;;;;;4.43;2.95;;;12.50;1.00;;;;;;4933653;29;20040;-87
2021/01/29 07:26:40;;;;;;;2.05;1.60;;;12.60;1.00;;;;;;4947854;29;20035;-85
2021/01/29 07:29:05;;;;;;;3.33;1.88;;;12.60;1.00;;;;;;4939729;29;20035;-84
2021/01/29 07:32:12;;;;;;;2.92;2.13;;;12.70;1.00;;;;;;4932639;29;20094;-84
2021/01/29 07:35:01;;;;;;;2.50;1.48;;;12.70;1.00;;;;;;4914026;29;20040;-84
2021/01/29 07:37:54;;;;;;;4.90;4.20;;;12.80;1.00;;;;;;4914611;29;20028;-84
2021/01/29 07:40:38;;;;;;;4.47;3.72;;;12.70;1.00;;;;;;4913737;29;20123;-84
2021/01/29 07:43:10;;;;;;;2.03;1.00;;;12.70;1.00;;;;;;4982463;28;20181;-84
2021/01/29 07:46:09;;;;;;;2.90;1.10;;;12.80;1.00;;;;;;4996973;28;20124;-84
2021/01/29 07:48:54;;;;;;;1.42;1.10;;;12.90;1.00;;;;;;4988514;28;20033;-84
2021/01/29 07:51:51;;;;;;;1.25;1.13;;;12.80;1.00;;;;;;4992335;28;20399;-84
2021/01/29 07:54:31;;;;;;;1.45;1.30;;;12.80;1.00;;;;;;4989876;28;20019;-84
2021/01/29 07:57:30;;;;;;;1.65;1.30;;;12.80;1.00;;;;;;4994210;28;20374;-84
2021/01/29 08:00:13;;;;;;;1.85;1.60;;;13.00;1.00;;;;;;4974760;28;20512;-84
2021/01/29 08:03:00;;;;;;;1.15;0.90;;;13.00;1.00;;;;;;4985457;28;20069;-84
2021/01/29 08:05:28;;;;;;;3.20;1.00;;;12.90;1.00;;;;;;5014263;28;20054;-84
2021/01/29 08:08:09;;;;;;;2.63;1.40;;;13.00;1.00;;;;;;5032652;28;20510;-84
2021/01/29 08:10:37;;;;;;;1.50;1.20;;;13.00;1.00;;;;;;5035723;28;20032;-84
2021/01/29 08:13:06;;;;;;;1.00;0.90;;;13.00;1.00;;;;;;5033465;28;20021;-84
2021/01/29 08:15:47;;;;;;;2.08;1.00;;;13.00;1.00;;;;;;5034954;28;20112;-84
2021/01/29 08:18:50;;;;;;;2.42;1.40;;;13.10;1.00;;;;;;5015376;28;20101;-84
2021/01/29 08:21:40;;;;;;;3.15;1.30;;;13.30;1.00;;;;;;5031210;28;20036;-84
2021/01/29 08:24:39;;;;;;;1.73;0.90;;;13.70;1.00;;;;;;5033435;28;20022;-85
2021/01/29 08:27:32;;;;;;;3.50;1.10;;;14.20;1.00;;;;;;5033670;28;20399;-85
2021/01/29 08:30:34;;;;;;;1.75;1.00;;;15.70;1.00;;;;;;5034947;28;20025;-85
2021/01/29 08:33:30;;;;;;;1.58;1.00;;;18.00;99.90;;;;;;5034291;28;20044;-87
2021/01/29 08:36:10;;;;;;;1.70;1.10;;;21.00;99.90;;;;;;5035214;28;20032;-87
2021/01/29 08:38:47;;;;;;;1.50;0.95;;;22.30;99.90;;;;;;5034699;28;20034;-87
2021/01/29 08:41:50;;;;;;;1.08;0.98;;;24.30;99.90;;;;;;5034813;28;20022;-87
2021/01/29 08:45:09;;;;;;;2.17;1.30;;;25.90;99.90;;;;;;5034366;28;20032;-92
2021/01/29 08:48:04;;;;;;;4.93;3.72;;;27.60;99.90;;;;;;5034650;28;20072;-87
2021/01/29 08:51:07;;;;;;;2.00;1.40;;;28.30;99.90;;;;;;5034570;28;20095;-89
2021/01/29 08:54:00;;;;;;;2.90;1.45;;;28.80;99.90;;;;;;5017579;28;20025;-87
2021/01/29 08:56:31;;;;;;;2.22;1.40;;;29.00;99.90;;;;;;5034694;28;20025;-87
2021/01/29 08:58:59;;;;;;;3.53;1.42;;;26.40;99.90;;;;;;5015474;28;20072;-87
2021/01/29 09:01:52;;;;;;;1.83;1.25;;;27.70;99.90;;;;;;5022964;28;20046;-87
2021/01/29 09:04:50;;;;;;;2.50;1.17;;;28.80;99.90;;;;;;5018379;28;20084;-85
2021/01/29 09:07:21;;;;;;;2.78;1.40;;;26.20;99.90;;;;;;5023289;28;20056;-85
2021/01/29 09:09:49;;;;;;;2.92;1.40;;;20.70;99.90;;;;;;5021326;28;20022;-83
2021/01/29 09:12:20;;;;;;;1.27;1.00;;;22.30;99.90;;;;;;5025143;28;20025;-84
2021/01/29 09:15:24;;;;;;;1.77;1.05;;;25.80;99.90;;;;;;5033698;28;20092;-83
2021/01/29 09:18:01;;;;;;;4.50;0.88;;;28.60;99.90;;;;;;4992788;28;20038;-84
2021/01/29 09:20:31;;;;;;;1.90;1.30;;;29.90;99.90;;;;;;4980074;28;20023;-84
2021/01/29 09:23:10;;;;;;;1.52;1.20;;;28.40;99.90;;;;;;4991314;28;20190;-87
2021/01/29 09:25:41;;;;;;;2.53;0.90;;;29.70;99.90;;;;;;4993135;28;20073;-86
2021/01/29 09:28:22;;;;;;;1.52;1.00;;;29.40;99.90;;;;;;4993136;28;20512;-84
2021/01/29 09:30:56;;;;;;;2.42;1.20;;;28.80;99.90;;;;;;4992269;28;20034;-84
2021/01/29 09:33:27;;;;;;;1.42;1.08;;;30.20;99.90;;;;;;4992392;28;20026;-85
2021/01/29 09:35:58;;;;;;;2.33;1.10;;;29.20;99.90;;;;;;4975862;28;20027;-87
2021/01/29 09:38:32;;;;;;;2.83;1.40;;;29.60;99.90;;;;;;4990605;28;20029;-87
2021/01/29 09:41:19;;;;;;;2.85;1.30;;;29.10;99.90;;;;;;4991436;28;20477;-85
2021/01/29 09:43:48;;;;;;;1.75;1.45;;;28.90;99.90;;;;;;4977174;28;20035;-88
2021/01/29 09:46:21;;;;;;;2.30;1.20;;;30.30;99.90;;;;;;4974815;28;20027;-84
2021/01/29 09:48:50;;;;;;;2.55;1.45;;;31.00;99.90;;;;;;4980063;28;20084;-84
2021/01/29 09:51:33;;;;;;;2.80;1.17;;;32.20;99.90;;;;;;4992163;28;20555;-84
2021/01/29 09:54:40;;;;;;;2.33;1.35;;;31.60;99.90;;;;;;5001609;28;20038;-85
2021/01/29 09:57:19;;;;;;;1.33;1.10;;;32.40;99.90;;;;;;4942657;29;20086;-85
2021/01/29 10:00:09;;;;;;;1.38;1.15;;;32.40;99.90;;;;;;4953148;29;20019;-87
2021/01/29 10:02:43;;;;;;;1.55;1.38;;;26.80;99.90;;;;;;4938034;29;20047;-85
2021/01/29 10:05:12;;;;;;;1.90;1.00;;;28.10;99.90;;;;;;4947355;29;20457;-86
2021/01/29 10:07:44;;;;;;;2.90;1.13;;;29.80;99.90;;;;;;4942444;29;20134;-86
2021/01/29 10:10:36;;;;;;;1.35;0.93;;;27.30;99.90;;;;;;4949384;29;20040;-86
2021/01/29 10:13:28;;;;;;;1.27;0.90;;;27.30;99.90;;;;;;4937924;29;20394;-86
2021/01/29 10:16:18;;;;;;;1.90;1.00;;;27.90;99.90;;;;;;4941059;29;20038;-85
2021/01/29 10:18:57;;;;;;;3.05;1.15;;;30.20;99.90;;;;;;4887076;29;20072;-85
2021/01/29 10:21:38;;;;;;;2.17;1.00;;;31.90;99.90;;;;;;4890249;29;20044;-86
2021/01/29 10:24:14;;;;;;;3.60;0.90;;;31.90;99.90;;;;;;4896393;29;20037;-84
2021/01/29 10:26:49;;;;;;;1.52;0.80;;;32.00;99.90;;;;;;4895712;29;20427;-85
2021/01/29 10:29:23;;;;;;;2.20;0.90;;;32.00;99.90;;;;;;4894911;29;20036;-89
2021/01/29 10:32:13;;;;;;;1.65;0.57;;;29.80;99.90;;;;;;4895975;29;20032;-86
2021/01/29 10:34:48;;;;;;;1.25;0.80;;;28.90;99.90;;;;;;4944049;29;20039;-88
2021/01/29 10:37:31;;;;;;;1.60;0.90;;;31.90;99.90;;;;;;4936892;29;20126;-88
2021/01/29 10:40:09;;;;;;;6.25;0.95;;;30.70;99.90;;;;;;4934354;29;20031;-88
2021/01/29 10:43:02;;;;;;;2.00;1.02;;;26.70;99.90;;;;;;4935296;29;20111;-87
2021/01/29 10:46:15;;;;;;;3.92;1.52;;;25.20;99.90;;;;;;4929342;29;20130;-87
2021/01/29 10:48:50;;;;;;;2.58;1.20;;;22.30;99.90;;;;;;4890020;29;20507;-87
2021/01/29 10:51:29;;;;;;;4.45;1.10;;;22.40;99.90;;;;;;4861834;29;20615;-87
2021/01/29 10:54:00;;;;;;;2.20;0.98;;;20.70;99.90;;;;;;4868891;29;20053;-87
2021/01/29 10:57:04;;;;;;;3.17;0.90;;;19.80;99.90;;;;;;4920912;29;20036;-88
2021/01/29 10:59:53;;;;;;;3.65;1.10;;;19.40;99.90;;;;;;4898600;29;20122;-87
2021/01/29 11:02:34;;;;;;;2.40;0.80;;;18.70;99.90;;;;;;4933619;29;20123;-87
2021/01/29 11:05:13;;;;;;;3.13;1.10;;;18.30;99.90;;;;;;4945480;29;20035;-85
2021/01/29 11:07:47;;;;;;;2.35;0.98;;;17.70;99.90;;;;;;4935450;29;20050;-85
2021/01/29 11:10:22;;;;;;;3.55;1.23;;;20.80;99.90;;;;;;4952889;29;20031;-84
2021/01/29 11:13:18;;;;;;;6.10;1.17;;;19.30;99.90;;;;;;4951964;29;20045;-84
2021/01/29 11:15:50;;;;;;;5.15;1.70;;;18.60;99.90;;;;;;4952060;29;20127;-84
2021/01/29 11:18:32;;;;;;;4.25;1.25;;;18.60;99.90;;;;;;4951941;29;20149;-84
2021/01/29 11:21:20;;;;;;;3.75;1.20;;;18.70;99.90;;;;;;4936374;29;20028;-86
2021/01/29 11:24:01;;;;;;;3.30;1.60;;;18.40;99.90;;;;;;4933272;29;20614;-85
2021/01/29 11:26:45;;;;;;;3.42;1.30;;;21.90;99.90;;;;;;5033221;28;20045;-86
2021/01/29 11:29:43;;;;;;;2.05;0.93;;;23.20;99.90;;;;;;5036076;28;20071;-88
2021/01/29 11:32:34;;;;;;;2.67;1.30;;;27.10;99.90;;;;;;4975966;28;20118;-88
2021/01/29 11:35:23;;;;;;;3.13;1.42;;;26.80;99.90;;;;;;4986728;28;20050;-90
2021/01/29 11:38:00;;;;;;;4.55;1.42;;;23.50;99.90;;;;;;4977403;28;20157;-89
2021/01/29 11:40:37;;;;;;;3.63;1.15;;;24.20;99.90;;;;;;4975088;28;20034;-87
2021/01/29 11:43:25;;;;;;;2.60;1.08;;;26.40;99.90;;;;;;4969543;28;20085;-89
2021/01/29 11:45:57;;;;;;;8.27;2.00;;;26.90;99.90;;;;;;4976458;28;20082;-88
2021/01/29 11:48:33;;;;;;;4.75;1.65;;;29.80;99.90;;;;;;4997661;28;20038;-91
2021/01/29 11:51:21;;;;;;;5.75;1.75;;;29.10;99.90;;;;;;5008563;28;20031;-87
2021/01/29 11:53:58;;;;;;;3.97;1.20;;;29.20;99.90;;;;;;4993330;28;20074;-86
2021/01/29 11:56:31;;;;;;;4.05;1.50;;;29.20;99.90;;;;;;4983553;28;20046;-88
2021/01/29 11:59:22;;;;;;;3.10;1.17;;;31.00;99.90;;;;;;4985857;28;20121;-90
2021/01/29 12:02:28;;;;;;;6.07;1.48;;;31.00;99.90;;;;;;4993802;28;20047;-84
2021/01/29 12:05:31;;;;;;;2.55;1.15;;;30.30;99.90;;;;;;4976762;28;20054;-86
2021/01/29 12:08:04;;;;;;;2.88;1.02;;;30.30;99.90;;;;;;4984552;28;20045;-86
2021/01/29 12:10:52;;;;;;;3.30;1.30;;;27.80;99.90;;;;;;5027758;28;20031;-87
2021/01/29 12:13:21;;;;;;;4.03;1.58;;;28.30;99.90;;;;;;5035042;28;20036;-87
2021/01/29 12:15:53;;;;;;;4.10;1.23;;;26.30;99.90;;;;;;5033670;28;20088;-87
2021/01/29 12:18:22;;;;;;;5.43;1.52;;;23.00;99.90;;;;;;5033960;28;20044;-91
2021/01/29 12:20:48;;;;;;;3.33;1.10;;;22.60;99.90;;;;;;5035482;28;20025;-90
2021/01/29 12:23:38;;;;;;;2.92;1.10;;;20.10;99.90;;;;;;5035347;28;20075;-88
2021/01/29 12:26:29;;;;;;;3.47;1.15;;;18.80;99.90;;;;;;5035105;28;20018;-86
2021/01/29 12:29:19;;;;;;;3.25;1.48;;;18.70;99.90;;;;;;5035290;28;20459;-90
2021/01/29 12:31:59;;;;;;;3.63;1.58;;;18.30;99.90;;;;;;4954515;29;20033;-87
2021/01/29 12:34:30;;;;;;;3.65;1.48;;;17.50;99.90;;;;;;4955123;29;20178;-88
2021/01/29 12:37:44;;;;;;;4.78;1.25;;;17.30;99.90;;;;;;4938735;29;20057;-89
2021/01/29 12:40:41;;;;;;;4.15;1.20;;;17.30;99.90;;;;;;4942699;29;20019;-83
2021/01/29 12:43:42;;;;;;;3.00;1.70;;;17.40;99.90;;;;;;4943332;29;20572;-83
2021/01/29 12:46:20;;;;;;;4.65;1.20;;;17.40;99.90;;;;;;4921586;29;20496;-83
2021/01/29 12:48:54;;;;;;;4.13;1.13;;;17.20;99.90;;;;;;4948147;29;20027;-87
2021/01/29 12:51:29;;;;;;;3.15;1.42;;;16.90;99.90;;;;;;4944201;29;20023;-83
2021/01/29 12:54:04;;;;;;;6.88;1.58;;;16.90;99.90;;;;;;4935528;29;20097;-83
2021/01/29 12:56:38;;;;;;;4.72;1.40;;;17.40;99.90;;;;;;4935980;29;20130;-83
2021/01/29 12:59:07;;;;;;;4.93;1.60;;;17.60;99.90;;;;;;4942959;29;20445;-83
2021/01/29 13:01:35;;;;;;;3.70;1.33;;;18.20;99.90;;;;;;4954883;29;20074;-83
2021/01/29 13:04:43;;;;;;;4.00;1.00;;;18.40;99.90;;;;;;4952701;29;20024;-83
2021/01/29 13:07:19;;;;;;;4.13;1.30;;;17.40;99.90;;;;;;4944235;29;20556;-83
2021/01/29 13:09:57;;;;;;;4.68;1.45;;;16.90;99.90;;;;;;5007105;28;20022;-82
2021/01/29 13:12:37;;;;;;;4.05;1.27;;;16.70;99.90;;;;;;5032870;28;20423;-82
2021/01/29 13:15:24;;;;;;;4.15;1.10;;;16.80;99.90;;;;;;5034485;28;20025;-82
2021/01/29 13:18:18;;;;;;;4.40;1.38;;;16.60;99.90;;;;;;5034734;28;20021;-82
2021/01/29 13:20:50;;;;;;;4.30;1.58;;;16.70;99.90;;;;;;5024909;28;20045;-83
2021/01/29 13:23:21;;;;;;;7.07;1.45;;;18.20;99.90;;;;;;5034295;28;20491;-83
2021/01/29 13:25:56;;;;;;;4.15;1.48;;;21.40;99.90;;;;;;5034861;28;20017;-83
2021/01/29 13:28:22;;;;;;;4.82;1.23;;;24.10;99.90;;;;;;5034486;28;20022;-83
2021/01/29 13:30:48;;;;;;;5.78;1.70;;;24.90;99.90;;;;;;5034551;28;20067;-83
2021/01/29 13:33:23;;;;;;;4.10;1.20;;;24.10;99.90;;;;;;5033861;28;20475;-83
2021/01/29 13:36:02;;;;;;;3.35;1.40;;;24.00;99.90;;;;;;5019784;28;20491;-83
2021/01/29 13:38:35;;;;;;;3.72;1.67;;;24.50;99.90;;;;;;5028563;28;20115;-83
2021/01/29 13:41:16;;;;;;;4.55;1.50;;;22.20;99.90;;;;;;5034439;28;20053;-83
2021/01/29 13:43:44;;;;;;;4.60;1.48;;;19.80;99.90;;;;;;5033493;28;20025;-83
2021/01/29 13:46:24;;;;;;;4.93;1.38;;;18.40;99.90;;;;;;5033404;28;20067;-83
2021/01/29 13:49:30;;;;;;;8.40;1.63;;;17.90;99.90;;;;;;5032005;28;20025;-83
2021/01/29 13:51:57;;;;;;;3.35;1.10;;;17.40;99.90;;;;;;5014453;28;20034;-83
2021/01/29 13:54:36;;;;;;;3.75;1.35;;;17.10;99.90;;;;;;5033014;28;20104;-83
2021/01/29 13:57:25;;;;;;;5.88;1.35;;;16.60;99.90;;;;;;5033755;28;20057;-82
2021/01/29 14:00:00;;;;;;;4.78;1.17;;;16.30;99.90;;;;;;5019261;28;20044;-82
2021/01/29 14:02:39;;;;;;;7.15;1.60;;;16.20;99.90;;;;;;5033303;28;20032;-82
2021/01/29 14:05:10;;;;;;;3.28;1.40;;;17.40;99.90;;;;;;5033384;28;20018;-83